Main page
METAR-TAF:

METAR-TAF

Airports :

Garner Field

Uvalde, Texas, United States

latitude: 29-12-40N, longitude: 099-44-36W, elevation: 941 ft

Current weather observation

The report was made 22 minutes ago, at 17:35 UTC
Wind 5 mph from the South/Southeast
Temperature 91°F
Humidity 46%
Pressure 29.98 in. Hg
Visibility: 10 miles
Broken clouds at a height of 4700 ft

METAR: KUVA 141735Z AUTO 16004KT 10SM BKN047 33/20 A2998 RMK AO2 T03300199

Time: 12:57 (17:57 UTC)


TAF: missing

Weather observations and forecasts of more than 4000 airports (METAR and TAF reports).

The available stations are represented by yellow and red dots on the map.

Hover mouse over dot to see the name of the station.

Then click to see weather observations and forecasts.

To change the map : click on the green buttons with a black cross to zoom in, on the green button with a dash to zoom out, or on the green arrows for adjacent maps.


METAR-TAF: